Kimballs, Vermont
Current Conditions -  °F | °C
As of 7:54 AM on Tuesday 21 Oct 2014 (Local Time) from KBTV Reporting Station
Overcast Overcast  
Wind Chill: 43°   Ceiling: 9000
Heat Index: 45°   Visibility: 10mi
Dew Point: 41°   Wind: 5mph
Humidity: 86%   Direction: 80°E
Pressure: 29.95"   Gusts: NA
Location:  44.2438°N, 73.1915°W
Report Text: KBTV 211154Z 08004KT 10SM SCT055 OVC090 07/05 A2995 RMK AO2 RAE23B40E52 SLP145 P0001 60008 70008 T00720050 10089 20072 53008
Loading
Personal Weather Stations






























Interactive Weather Map
Tropical Storm Tracking
New forecast layout! Learn more

10-Day Weather Forecast

Advertisements
Track Severe Weather on mobile